Time;durP1;ratioP1;P1;durP2;ratioP2;P2;SDS_P1;SDS_P2;PMS_P1;PMS_P2;Temp;Humidity;BMP_temperature;BMP_pressure;BME280_temperature;BME280_humidity;BME280_pressure;Samples;Min_cycle;Max_cycle;Signal;HPM_P1;HPM_P2
2021/04/18 00:01:48;;;;;;;9.55;4.50;;;8.60;95.10;;;;;;5013828;28;20279;-74
2021/04/18 00:04:15;;;;;;;7.57;4.43;;;8.70;92.90;;;;;;5015342;28;20652;-74
2021/04/18 00:06:42;;;;;;;6.22;4.65;;;8.70;93.00;;;;;;5026039;28;20229;-74
2021/04/18 00:09:12;;;;;;;5.22;4.15;;;8.70;93.00;;;;;;5032452;28;20205;-74
2021/04/18 00:11:43;;;;;;;6.22;4.57;;;8.70;92.70;;;;;;5015144;28;20249;-74
2021/04/18 00:14:10;;;;;;;10.75;5.45;;;8.70;92.40;;;;;;5015498;28;20186;-74
2021/04/18 00:16:37;;;;;;;13.93;4.97;;;8.70;92.70;;;;;;5014658;28;20222;-74
2021/04/18 00:19:05;;;;;;;9.18;4.65;;;8.70;92.10;;;;;;5014989;28;20272;-74
2021/04/18 00:21:32;;;;;;;10.90;4.45;;;8.80;91.50;;;;;;5013357;28;20218;-74
2021/04/18 00:23:59;;;;;;;6.75;4.70;;;8.80;91.40;;;;;;5030586;28;20221;-74
2021/04/18 00:26:26;;;;;;;9.27;4.65;;;8.80;91.80;;;;;;5014379;28;20229;-74
2021/04/18 00:28:52;;;;;;;13.02;5.25;;;8.80;91.30;;;;;;5015078;28;20263;-74
2021/04/18 00:31:19;;;;;;;8.20;4.93;;;8.80;91.20;;;;;;5014538;28;20206;-74
2021/04/18 00:33:46;;;;;;;6.10;4.53;;;8.80;91.70;;;;;;5014143;28;20229;-74
2021/04/18 00:36:20;;;;;;;10.70;5.72;;;8.70;92.50;;;;;;5029508;28;20714;-74
2021/04/18 00:38:46;;;;;;;9.27;4.75;;;8.70;92.80;;;;;;5015151;28;20651;-74
2021/04/18 00:41:12;;;;;;;6.68;4.85;;;8.70;93.00;;;;;;5014162;28;20687;-74
2021/04/18 00:43:43;;;;;;;10.88;5.05;;;8.70;93.20;;;;;;5014998;28;20178;-74
2021/04/18 00:46:11;;;;;;;6.25;4.15;;;8.60;94.50;;;;;;5012676;28;20291;-74
2021/04/18 00:48:43;;;;;;;7.72;5.60;;;8.60;94.30;;;;;;5014115;28;20220;-74
2021/04/18 00:51:11;;;;;;;10.52;5.22;;;8.70;94.10;;;;;;5013112;28;20210;-74
2021/04/18 00:53:40;;;;;;;12.52;5.85;;;8.60;94.50;;;;;;5013530;28;20726;-74
2021/04/18 00:56:09;;;;;;;12.02;4.60;;;8.60;94.80;;;;;;5013707;28;20229;-74
2021/04/18 00:58:37;;;;;;;11.90;5.38;;;8.70;94.50;;;;;;5013318;28;20185;-74
2021/04/18 01:01:05;;;;;;;8.00;5.30;;;8.70;94.30;;;;;;5014265;28;20699;-74
2021/04/18 01:03:33;;;;;;;5.95;4.45;;;8.60;94.80;;;;;;5013066;28;20384;-74
2021/04/18 01:06:03;;;;;;;7.90;4.63;;;8.50;95.80;;;;;;5013867;28;20321;-74
2021/04/18 01:08:34;;;;;;;6.38;4.50;;;8.30;96.70;;;;;;5029789;28;20297;-74
2021/04/18 01:11:01;;;;;;;10.23;5.63;;;8.40;95.90;;;;;;5029131;28;20216;-74
2021/04/18 01:13:28;;;;;;;6.32;3.75;;;8.30;96.30;;;;;;5033889;28;20197;-74
2021/04/18 01:15:56;;;;;;;6.97;4.20;;;8.20;96.40;;;;;;5032101;28;20267;-74
2021/04/18 01:18:22;;;;;;;8.15;5.03;;;8.20;96.40;;;;;;5019929;28;20252;-74
2021/04/18 01:21:02;;;;;;;4.80;3.70;;;8.20;95.70;;;;;;5012379;28;20276;-74
2021/04/18 01:23:48;;;;;;;5.65;4.40;;;8.10;96.40;;;;;;5013601;28;20278;-74
2021/04/18 01:26:24;;;;;;;6.55;3.90;;;8.00;96.80;;;;;;5013226;28;20221;-74
2021/04/18 01:28:54;;;;;;;7.65;4.72;;;7.90;97.20;;;;;;5014320;28;20237;-74
2021/04/18 01:31:21;;;;;;;6.82;4.63;;;7.80;97.60;;;;;;5013430;28;20225;-74
2021/04/18 01:33:47;;;;;;;4.70;3.55;;;7.90;96.40;;;;;;5029302;28;20265;-74
2021/04/18 01:36:14;;;;;;;7.53;4.63;;;7.80;96.80;;;;;;5013400;28;20594;-74
2021/04/18 01:38:44;;;;;;;7.00;4.10;;;7.80;96.70;;;;;;5013902;28;20197;-74
2021/04/18 01:41:11;;;;;;;8.20;4.43;;;7.60;97.50;;;;;;5011976;28;20221;-74
2021/04/18 01:43:39;;;;;;;6.45;4.75;;;7.50;97.80;;;;;;5014318;28;20178;-74
2021/04/18 01:46:09;;;;;;;5.10;3.65;;;7.40;98.20;;;;;;5011608;28;20225;-74
2021/04/18 01:48:37;;;;;;;4.68;3.92;;;7.30;98.60;;;;;;5012509;28;20225;-74
2021/04/18 01:51:07;;;;;;;6.90;4.80;;;7.30;99.00;;;;;;5028268;28;20268;-74
2021/04/18 01:53:35;;;;;;;6.95;3.72;;;7.20;99.00;;;;;;5013679;28;20189;-74
2021/04/18 01:56:03;;;;;;;8.23;4.90;;;7.30;99.40;;;;;;5011258;28;20224;-74
2021/04/18 01:58:33;;;;;;;7.97;4.25;;;7.20;98.70;;;;;;5013425;28;20236;-74
2021/04/18 02:01:26;;;;;;;6.50;4.38;;;7.30;98.40;;;;;;5019476;28;20226;-74
2021/04/18 02:03:54;;;;;;;8.88;5.32;;;7.40;97.80;;;;;;5028781;28;20285;-74
2021/04/18 02:06:22;;;;;;;8.82;4.95;;;7.40;98.00;;;;;;5025241;28;20228;-74
2021/04/18 02:09:01;;;;;;;7.30;4.35;;;7.50;97.60;;;;;;5029825;28;20244;-74
2021/04/18 02:11:39;;;;;;;7.53;4.50;;;7.50;97.10;;;;;;5046719;28;20639;-74
2021/04/18 02:14:12;;;;;;;8.10;4.25;;;7.50;96.60;;;;;;5031460;28;20189;-74
2021/04/18 02:16:58;;;;;;;10.55;5.88;;;7.50;97.00;;;;;;5031603;28;20217;-74
2021/04/18 02:19:25;;;;;;;6.13;4.22;;;7.40;97.10;;;;;;5026148;28;20679;-74
2021/04/18 02:21:53;;;;;;;11.02;5.10;;;7.40;96.70;;;;;;5025513;28;20300;-74
2021/04/18 02:24:20;;;;;;;16.00;5.55;;;7.40;97.00;;;;;;5028972;28;20191;-74
2021/04/18 02:26:46;;;;;;;9.13;4.63;;;7.40;97.30;;;;;;5014515;28;20716;-74
2021/04/18 02:29:22;;;;;;;8.30;5.03;;;7.40;97.50;;;;;;5031423;28;20748;-74
2021/04/18 02:31:56;;;;;;;11.35;5.00;;;7.40;97.30;;;;;;5030620;28;20234;-74
2021/04/18 02:34:25;;;;;;;6.30;4.10;;;7.40;97.60;;;;;;5013189;28;20192;-74
2021/04/18 02:36:52;;;;;;;6.97;4.53;;;7.30;97.70;;;;;;5012032;28;20226;-74
2021/04/18 02:39:18;;;;;;;9.45;4.43;;;7.40;97.30;;;;;;5015577;28;20248;-74
2021/04/18 02:41:46;;;;;;;9.23;4.45;;;7.40;97.10;;;;;;5012394;28;20761;-74
2021/04/18 02:44:15;;;;;;;9.57;5.38;;;7.40;96.90;;;;;;5011293;28;20196;-74
2021/04/18 02:46:42;;;;;;;10.60;5.53;;;7.40;97.50;;;;;;5026882;28;20230;-74
2021/04/18 02:49:09;;;;;;;5.95;4.72;;;7.30;96.80;;;;;;5027422;28;20304;-74
2021/04/18 02:51:38;;;;;;;7.55;4.38;;;7.30;97.00;;;;;;5012156;28;20263;-74
2021/04/18 02:54:05;;;;;;;11.85;4.47;;;7.30;97.10;;;;;;5012224;28;20659;-74
2021/04/18 02:56:35;;;;;;;12.05;5.13;;;7.30;97.00;;;;;;5026887;28;20305;-74
2021/04/18 02:59:06;;;;;;;6.68;4.30;;;7.30;97.40;;;;;;4995431;28;20679;-74
2021/04/18 03:01:33;;;;;;;9.05;4.13;;;7.30;97.50;;;;;;5011518;28;20230;-74
2021/04/18 03:04:01;;;;;;;8.63;4.40;;;7.40;97.80;;;;;;5043299;28;20204;-74
2021/04/18 03:06:28;;;;;;;9.88;4.90;;;7.40;97.50;;;;;;5031209;28;20231;-74
2021/04/18 03:08:55;;;;;;;8.48;5.90;;;7.40;97.80;;;;;;5031417;28;20209;-74
2021/04/18 03:11:23;;;;;;;5.72;4.22;;;7.40;97.50;;;;;;5010556;28;20240;-74
2021/04/18 03:13:53;;;;;;;7.18;5.10;;;7.40;97.30;;;;;;5012292;28;20174;-74
2021/04/18 03:16:20;;;;;;;7.18;5.32;;;7.40;97.50;;;;;;5020716;28;20586;-74
2021/04/18 03:18:47;;;;;;;4.93;4.15;;;7.40;96.70;;;;;;5000063;28;20225;-74
2021/04/18 03:21:14;;;;;;;8.32;5.15;;;7.40;96.50;;;;;;5011483;28;20221;-74
2021/04/18 03:23:43;;;;;;;7.20;5.53;;;7.30;97.00;;;;;;5027395;28;20647;-74
2021/04/18 03:26:13;;;;;;;8.38;4.75;;;7.30;97.20;;;;;;5010948;28;20225;-74
2021/04/18 03:28:41;;;;;;;5.57;4.72;;;7.30;96.50;;;;;;5010770;28;20268;-74
2021/04/18 03:31:10;;;;;;;6.32;3.80;;;7.30;96.70;;;;;;5010162;28;20587;-74
2021/04/18 03:33:47;;;;;;;8.88;4.60;;;7.20;96.80;;;;;;5027337;28;20190;-74
2021/04/18 03:36:14;;;;;;;7.00;4.15;;;7.20;96.90;;;;;;5011155;28;20214;-74
2021/04/18 03:38:41;;;;;;;7.35;5.10;;;7.20;97.20;;;;;;5010615;28;20460;-74
2021/04/18 03:41:10;;;;;;;5.00;4.50;;;7.20;97.00;;;;;;5009969;28;20225;-74
2021/04/18 03:43:38;;;;;;;6.10;4.50;;;7.20;97.70;;;;;;5010628;28;20178;-74
2021/04/18 03:46:09;;;;;;;10.75;5.50;;;7.20;97.70;;;;;;5026271;28;20220;-74
2021/04/18 03:48:43;;;;;;;5.00;3.92;;;7.20;98.10;;;;;;5011655;28;20226;-74
2021/04/18 03:51:10;;;;;;;6.70;4.15;;;7.20;98.30;;;;;;5010124;28;20268;-74
2021/04/18 03:53:55;;;;;;;6.28;4.25;;;7.20;98.30;;;;;;5011803;28;20189;-74
2021/04/18 03:56:28;;;;;;;7.55;5.10;;;7.20;98.10;;;;;;5010191;28;20249;-74
2021/04/18 03:58:55;;;;;;;7.85;4.60;;;7.20;98.10;;;;;;5011667;28;20189;-74
2021/04/18 04:01:23;;;;;;;10.18;4.72;;;7.20;98.60;;;;;;5009987;28;20230;-74
2021/04/18 04:03:51;;;;;;;8.05;4.43;;;7.20;99.20;;;;;;5011496;28;20252;-74
2021/04/18 04:06:22;;;;;;;10.02;4.80;;;7.20;99.00;;;;;;5009820;28;20233;-74
2021/04/18 04:08:57;;;;;;;11.63;5.32;;;7.10;99.10;;;;;;5026553;28;20225;-74
2021/04/18 04:11:31;;;;;;;10.85;5.10;;;7.10;99.20;;;;;;5010019;28;20218;-74
2021/04/18 04:13:58;;;;;;;5.45;4.25;;;7.20;98.90;;;;;;5010352;28;20195;-74
2021/04/18 04:16:30;;;;;;;12.75;5.82;;;7.10;98.70;;;;;;5021613;28;20267;-74
2021/04/18 04:18:57;;;;;;;10.63;4.85;;;7.10;99.00;;;;;;5023917;28;20178;-74
2021/04/18 04:21:44;;;;;;;6.95;4.60;;;7.00;99.50;;;;;;5026419;28;20745;-74
2021/04/18 04:24:27;;;;;;;5.07;4.57;;;7.00;99.80;;;;;;5011660;28;20186;-74
2021/04/18 04:26:54;;;;;;;8.02;5.05;;;7.00;99.90;;;;;;5009536;28;20245;-74
2021/04/18 04:29:20;;;;;;;8.13;5.03;;;7.00;99.90;;;;;;5010272;28;20210;-74
2021/04/18 04:31:47;;;;;;;7.03;4.70;;;7.00;99.90;;;;;;5010867;28;20260;-74
2021/04/18 04:34:13;;;;;;;7.38;5.13;;;7.10;99.90;;;;;;5011232;28;20675;-74
2021/04/18 04:36:40;;;;;;;8.50;5.38;;;7.00;99.90;;;;;;5011463;28;20276;-74
2021/04/18 04:39:06;;;;;;;6.95;4.97;;;7.00;99.90;;;;;;5014887;28;20236;-74
2021/04/18 04:41:33;;;;;;;6.10;5.00;;;7.00;99.90;;;;;;5013087;28;20722;-74
2021/04/18 04:43:59;;;;;;;9.27;5.30;;;7.00;99.90;;;;;;5015439;28;20240;-74
2021/04/18 04:46:26;;;;;;;10.25;6.05;;;6.90;99.90;;;;;;5013863;28;20230;-74
2021/04/18 04:48:53;;;;;;;7.10;5.47;;;7.00;99.90;;;;;;5029644;28;20210;-74
2021/04/18 04:51:19;;;;;;;9.32;5.78;;;7.00;99.90;;;;;;5014132;28;20218;-74
2021/04/18 04:53:46;;;;;;;11.32;5.45;;;7.00;99.90;;;;;;5014808;28;20264;-74
2021/04/18 04:56:12;;;;;;;8.50;5.85;;;7.10;99.90;;;;;;5013583;28;20248;-74
2021/04/18 04:58:38;;;;;;;9.20;5.82;;;7.00;99.90;;;;;;5013456;28;20244;-74
2021/04/18 05:01:05;;;;;;;6.28;5.20;;;7.10;99.90;;;;;;5013944;28;20287;-74
2021/04/18 05:03:31;;;;;;;7.30;5.45;;;7.00;99.90;;;;;;5014419;28;20193;-74
2021/04/18 05:06:04;;;;;;;11.25;5.82;;;7.00;99.90;;;;;;5013715;28;20225;-74
2021/04/18 05:08:30;;;;;;;8.80;6.35;;;7.00;99.90;;;;;;5014412;28;20232;-74
2021/04/18 05:10:57;;;;;;;9.95;6.20;;;7.00;99.90;;;;;;5013910;28;20280;-74
2021/04/18 05:13:26;;;;;;;11.43;6.70;;;7.00;99.90;;;;;;5032338;28;20260;-74
2021/04/18 05:15:53;;;;;;;8.82;6.18;;;7.10;99.90;;;;;;5033454;28;20201;-74
2021/04/18 05:18:21;;;;;;;11.38;6.95;;;7.10;99.90;;;;;;5027854;28;20186;-74
2021/04/18 05:20:48;;;;;;;9.43;6.30;;;7.10;99.90;;;;;;5013869;28;20186;-74
2021/04/18 05:23:14;;;;;;;7.80;6.25;;;7.10;99.90;;;;;;5014059;28;20661;-74
2021/04/18 05:25:41;;;;;;;9.77;6.22;;;7.10;99.90;;;;;;5013052;28;20221;-74
2021/04/18 05:28:08;;;;;;;8.73;5.95;;;7.10;99.90;;;;;;5012861;28;20555;-74
2021/04/18 05:30:34;;;;;;;9.48;6.70;;;7.10;99.90;;;;;;5023328;28;20205;-74
2021/04/18 05:33:06;;;;;;;10.00;6.50;;;7.10;99.90;;;;;;5020821;28;20336;-74
2021/04/18 05:35:33;;;;;;;10.20;6.90;;;7.00;99.90;;;;;;5029077;28;20244;-74
2021/04/18 05:38:00;;;;;;;11.93;7.32;;;7.00;99.90;;;;;;5013060;28;20214;-74
2021/04/18 05:40:26;;;;;;;9.68;6.78;;;7.10;99.90;;;;;;5013470;28;20198;-74
2021/04/18 05:42:55;;;;;;;12.07;6.60;;;7.10;99.90;;;;;;5013287;28;20222;-74
2021/04/18 05:45:22;;;;;;;11.00;7.10;;;7.00;99.90;;;;;;5012300;28;20221;-74
2021/04/18 05:47:48;;;;;;;13.05;6.70;;;7.10;99.90;;;;;;5012655;28;20217;-74
2021/04/18 05:50:19;;;;;;;9.32;7.22;;;7.00;99.90;;;;;;5013192;28;20206;-74
2021/04/18 05:52:45;;;;;;;11.55;7.07;;;7.00;99.90;;;;;;5011915;28;20287;-74
2021/04/18 05:55:12;;;;;;;9.35;6.85;;;7.00;99.90;;;;;;5011870;28;20210;-74
2021/04/18 05:57:38;;;;;;;8.18;6.55;;;7.00;99.90;;;;;;5011533;28;20783;-74
2021/04/18 06:00:06;;;;;;;8.43;6.45;;;6.90;99.90;;;;;;5013319;28;20190;-74
2021/04/18 06:02:38;;;;;;;13.13;7.20;;;7.00;99.90;;;;;;5012702;28;20272;-74
2021/04/18 06:05:06;;;;;;;10.80;6.95;;;7.00;99.90;;;;;;5011855;28;20241;-74
2021/04/18 06:07:35;;;;;;;12.23;6.80;;;7.00;99.90;;;;;;5024890;28;20752;-74
2021/04/18 06:10:03;;;;;;;9.57;6.85;;;7.00;99.90;;;;;;5027877;28;20213;-74
2021/04/18 06:12:30;;;;;;;6.65;5.47;;;7.00;99.90;;;;;;5012748;28;20753;-74
2021/04/18 06:14:56;;;;;;;9.00;6.55;;;7.00;99.90;;;;;;5013244;28;20606;-74
2021/04/18 06:17:23;;;;;;;11.73;6.63;;;7.00;99.90;;;;;;5011071;28;20268;-74
2021/04/18 06:19:50;;;;;;;9.20;6.70;;;7.00;99.90;;;;;;5012295;28;20252;-74
2021/04/18 06:22:16;;;;;;;15.13;7.65;;;7.00;99.90;;;;;;5027702;28;20279;-74
2021/04/18 06:24:43;;;;;;;12.98;7.88;;;7.00;99.90;;;;;;5012809;28;20244;-74
2021/04/18 06:27:09;;;;;;;11.73;6.97;;;7.10;99.90;;;;;;5026592;28;20240;-74
2021/04/18 06:29:36;;;;;;;9.40;6.60;;;7.00;99.90;;;;;;5032657;28;20567;-74
2021/04/18 06:32:02;;;;;;;7.35;6.65;;;7.00;99.90;;;;;;5029074;28;20271;-74
2021/04/18 06:34:29;;;;;;;10.18;7.60;;;7.10;99.90;;;;;;5012931;28;20728;-74
2021/04/18 06:36:56;;;;;;;10.35;7.63;;;7.10;99.90;;;;;;5010811;28;20312;-74
2021/04/18 06:39:22;;;;;;;8.45;6.75;;;7.10;99.90;;;;;;5027607;28;20193;-74
2021/04/18 06:41:54;;;;;;;13.38;7.30;;;7.10;99.90;;;;;;5011871;28;20299;-74
2021/04/18 06:44:22;;;;;;;13.05;7.70;;;7.10;99.90;;;;;;5031421;28;20197;-74
2021/04/18 06:46:52;;;;;;;9.60;7.15;;;7.10;99.90;;;;;;5032185;28;20229;-74
2021/04/18 06:49:18;;;;;;;9.88;7.18;;;7.10;99.90;;;;;;5032058;28;20205;-74
2021/04/18 06:51:45;;;;;;;9.88;7.90;;;7.10;99.90;;;;;;5029823;28;20229;-74
2021/04/18 06:54:12;;;;;;;10.57;6.65;;;7.10;99.90;;;;;;5028289;28;20209;-74
2021/04/18 06:56:39;;;;;;;10.90;7.43;;;7.20;99.90;;;;;;5027108;28;20229;-74
2021/04/18 06:59:06;;;;;;;10.85;7.13;;;7.30;99.90;;;;;;5011118;28;20266;-74
2021/04/18 07:01:34;;;;;;;10.23;8.40;;;7.30;99.90;;;;;;5009909;28;20718;-74
2021/04/18 07:04:15;;;;;;;12.45;9.35;;;7.30;99.90;;;;;;5030268;28;20193;-74
2021/04/18 07:06:50;;;;;;;7.95;7.00;;;7.40;99.90;;;;;;5031297;28;20225;-74
2021/04/18 07:09:22;;;;;;;12.95;9.27;;;7.40;99.90;;;;;;5027424;28;20204;-74
2021/04/18 07:11:53;;;;;;;11.90;7.28;;;7.50;99.90;;;;;;5011981;28;20232;-74
2021/04/18 07:14:31;;;;;;;15.73;7.80;;;7.60;99.90;;;;;;5010951;28;20190;-74
2021/04/18 07:17:12;;;;;;;13.68;8.43;;;7.60;99.90;;;;;;5010131;28;20225;-74
2021/04/18 07:19:44;;;;;;;9.10;7.75;;;7.80;99.90;;;;;;5011817;28;20186;-74
2021/04/18 07:22:14;;;;;;;13.15;8.20;;;8.00;99.90;;;;;;5011684;28;20225;-74
2021/04/18 07:24:55;;;;;;;23.70;8.68;;;8.20;99.90;;;;;;5011905;28;20201;-74
2021/04/18 07:27:23;;;;;;;16.10;9.18;;;8.30;99.90;;;;;;5011475;28;20295;-74
2021/04/18 07:29:58;;;;;;;18.83;8.60;;;8.30;99.90;;;;;;5011826;28;20190;-74
2021/04/18 07:32:28;;;;;;;15.05;8.50;;;8.40;99.90;;;;;;5011574;28;20225;-74
2021/04/18 07:34:55;;;;;;;9.95;8.65;;;8.40;99.90;;;;;;5010601;28;20664;-74
2021/04/18 07:37:26;;;;;;;12.82;8.73;;;8.50;99.90;;;;;;5011211;28;20639;-74
2021/04/18 07:39:59;;;;;;;22.20;8.05;;;8.50;99.90;;;;;;5014147;28;20199;-74
2021/04/18 07:42:39;;;;;;;14.18;8.77;;;8.40;99.90;;;;;;5026521;28;20224;-74
2021/04/18 07:45:16;;;;;;;16.50;9.50;;;8.40;99.90;;;;;;5010780;28;20628;-74
2021/04/18 07:47:46;;;;;;;13.95;10.35;;;8.50;99.90;;;;;;5016027;28;20753;-74
2021/04/18 07:50:19;;;;;;;11.05;8.30;;;8.60;99.90;;;;;;5023171;28;20685;-74
2021/04/18 07:52:47;;;;;;;16.10;9.55;;;8.60;99.90;;;;;;5031031;28;20217;-74
2021/04/18 07:55:15;;;;;;;10.90;7.95;;;8.60;99.90;;;;;;5019082;28;20771;-74
2021/04/18 07:57:43;;;;;;;11.35;8.80;;;8.60;99.90;;;;;;5009890;28;20221;-74
2021/04/18 08:00:14;;;;;;;9.90;8.18;;;8.70;99.90;;;;;;5010587;28;20232;-74
2021/04/18 08:02:47;;;;;;;13.98;8.68;;;8.70;99.90;;;;;;5010828;28;20249;-74
2021/04/18 08:05:18;;;;;;;13.52;8.02;;;8.70;99.90;;;;;;5011618;28;20204;-74
2021/04/18 08:08:07;;;;;;;16.90;9.18;;;8.80;99.90;;;;;;5028434;28;20227;-74
2021/04/18 08:10:39;;;;;;;13.65;9.98;;;8.80;99.90;;;;;;5029169;28;20210;-74
2021/04/18 08:13:09;;;;;;;14.15;8.48;;;8.80;99.90;;;;;;5033316;28;20263;-74
2021/04/18 08:15:39;;;;;;;13.40;10.15;;;8.80;99.90;;;;;;5033854;28;20197;-74
2021/04/18 08:18:15;;;;;;;14.02;10.38;;;8.90;99.90;;;;;;5034702;28;20237;-74
2021/04/18 08:20:44;;;;;;;14.40;11.10;;;8.90;99.90;;;;;;5030471;28;20280;-74
2021/04/18 08:23:16;;;;;;;19.08;8.85;;;9.00;99.90;;;;;;5015290;28;20188;-75
2021/04/18 08:26:04;;;;;;;20.08;10.65;;;9.10;99.90;;;;;;5023620;28;20241;-74
2021/04/18 08:28:52;;;;;;;15.38;9.80;;;9.10;99.90;;;;;;5015233;28;20244;-74
2021/04/18 08:31:28;;;;;;;9.77;8.52;;;9.10;99.90;;;;;;5014726;28;20687;-74
2021/04/18 08:34:05;;;;;;;13.35;9.95;;;9.10;99.90;;;;;;5029498;28;20527;-74
2021/04/18 08:36:34;;;;;;;12.05;9.00;;;9.20;99.90;;;;;;5014458;28;20225;-74
2021/04/18 08:39:01;;;;;;;13.23;9.05;;;9.20;99.90;;;;;;5029813;28;20190;-74
2021/04/18 08:41:47;;;;;;;17.17;10.30;;;9.20;99.90;;;;;;5014539;28;20268;-74
2021/04/18 08:44:21;;;;;;;16.92;10.38;;;9.40;99.90;;;;;;5046849;28;20184;-74
2021/04/18 08:46:58;;;;;;;10.93;8.95;;;9.60;99.90;;;;;;5032924;28;20595;-74
2021/04/18 08:49:37;;;;;;;13.90;9.30;;;9.80;99.90;;;;;;5018593;28;20240;-74
2021/04/18 08:52:21;;;;;;;14.27;8.80;;;10.00;98.70;;;;;;5013492;28;20222;-74
2021/04/18 08:54:49;;;;;;;15.98;8.43;;;10.00;98.30;;;;;;5013650;28;20194;-74
2021/04/18 08:57:17;;;;;;;11.68;8.82;;;10.00;98.30;;;;;;5029885;28;20267;-75
2021/04/18 08:59:56;;;;;;;12.55;9.88;;;10.00;98.30;;;;;;5014705;28;20191;-74
2021/04/18 09:02:27;;;;;;;18.00;10.38;;;10.10;98.30;;;;;;5019745;28;20218;-74
2021/04/18 09:04:58;;;;;;;12.95;10.15;;;10.20;98.10;;;;;;5028027;28;20300;-74
2021/04/18 09:07:34;;;;;;;18.35;10.18;;;10.40;96.90;;;;;;5033591;28;20225;-74
2021/04/18 09:10:05;;;;;;;16.53;11.27;;;10.90;96.30;;;;;;5024810;28;20258;-74
2021/04/18 09:12:32;;;;;;;15.33;9.90;;;11.30;95.40;;;;;;5013704;28;20495;-74
2021/04/18 09:14:59;;;;;;;17.93;10.60;;;11.80;92.10;;;;;;5026639;28;20533;-74
2021/04/18 09:17:31;;;;;;;13.37;9.00;;;12.40;90.20;;;;;;5031851;28;20552;-74
2021/04/18 09:20:04;;;;;;;12.93;10.00;;;13.00;84.80;;;;;;5033801;28;20774;-74
2021/04/18 09:22:33;;;;;;;9.97;8.47;;;12.90;84.40;;;;;;5021591;28;20477;-74
2021/04/18 09:25:06;;;;;;;15.80;8.90;;;13.30;80.50;;;;;;5013278;28;20461;-74
2021/04/18 09:27:34;;;;;;;12.80;9.17;;;13.50;78.30;;;;;;5012000;28;21040;-74
2021/04/18 09:30:12;;;;;;;11.73;10.10;;;13.20;78.00;;;;;;5013740;28;20511;-74
2021/04/18 09:32:48;;;;;;;11.77;9.77;;;12.90;80.40;;;;;;5031796;28;20471;-74
2021/04/18 09:35:18;;;;;;;13.53;8.97;;;12.40;83.00;;;;;;5021172;28;20472;-75
2021/04/18 09:37:56;;;;;;;10.77;9.67;;;12.10;86.20;;;;;;5028407;28;20974;-74
2021/04/18 09:40:26;;;;;;;20.73;11.40;;;11.90;89.10;;;;;;5012972;28;20678;-74
2021/04/18 09:42:54;;;;;;;13.50;9.50;;;11.90;89.60;;;;;;5030845;28;20815;-74
2021/04/18 09:45:30;;;;;;;20.50;11.30;;;11.80;90.30;;;;;;5033513;28;20440;-74
2021/04/18 09:48:10;;;;;;;16.40;10.57;;;11.70;90.60;;;;;;5024876;28;20495;-74
2021/04/18 09:50:37;;;;;;;14.33;9.70;;;11.70;90.80;;;;;;5012321;28;20865;-74
2021/04/18 09:53:12;;;;;;;12.60;9.43;;;11.80;90.40;;;;;;5026947;28;20452;-74
2021/04/18 09:55:56;;;;;;;12.73;9.60;;;11.90;89.80;;;;;;5027560;28;20459;-76
2021/04/18 09:58:29;;;;;;;15.90;9.80;;;11.90;88.40;;;;;;5033195;28;21284;-74
2021/04/18 10:00:56;;;;;;;13.57;9.30;;;11.90;90.40;;;;;;5031305;28;20945;-75
2021/04/18 10:03:41;;;;;;;12.70;10.00;;;12.00;90.10;;;;;;5022241;28;20973;-76
2021/04/18 10:06:09;;;;;;;18.23;10.70;;;12.00;90.70;;;;;;5012746;28;20465;-76
2021/04/18 10:08:37;;;;;;;12.43;9.57;;;12.00;89.70;;;;;;5017907;28;20427;-76
2021/04/18 10:11:09;;;;;;;14.33;10.13;;;11.90;89.50;;;;;;5014288;28;20461;-76
2021/04/18 10:13:46;;;;;;;14.60;10.27;;;11.90;90.20;;;;;;5020339;28;20945;-76
2021/04/18 10:16:25;;;;;;;21.73;10.17;;;11.90;91.50;;;;;;5032071;28;20495;-76
2021/04/18 10:19:10;;;;;;;13.03;10.30;;;11.80;90.00;;;;;;5030774;28;20431;-76
2021/04/18 10:21:42;;;;;;;14.97;10.00;;;11.80;90.20;;;;;;5012678;28;20455;-76
2021/04/18 10:24:49;;;;;;;15.30;10.83;;;11.90;90.60;;;;;;5028963;28;20424;-76
2021/04/18 10:27:19;;;;;;;13.50;9.87;;;12.00;90.50;;;;;;5012216;28;20993;-76
2021/04/18 10:29:49;;;;;;;17.60;9.83;;;12.10;90.60;;;;;;5012899;28;20452;-75
2021/04/18 10:32:17;;;;;;;17.83;9.93;;;12.30;90.70;;;;;;5018473;28;20479;-75
2021/04/18 10:34:47;;;;;;;14.20;11.80;;;12.50;89.90;;;;;;5031104;28;20486;-75
2021/04/18 10:37:14;;;;;;;11.47;8.97;;;12.80;88.90;;;;;;5023420;28;21069;-75
2021/04/18 10:39:40;;;;;;;11.87;9.00;;;13.00;85.40;;;;;;5025284;28;20444;-75
2021/04/18 10:42:08;;;;;;;14.23;9.50;;;13.10;82.70;;;;;;5010700;28;20471;-75
2021/04/18 10:44:35;;;;;;;11.07;9.13;;;13.00;82.80;;;;;;5012636;28;20424;-76
2021/04/18 10:47:03;;;;;;;12.50;9.83;;;12.80;82.00;;;;;;5010565;28;20990;-75
2021/04/18 10:49:31;;;;;;;12.00;9.23;;;12.70;84.20;;;;;;5014173;28;20823;-76
2021/04/18 10:51:59;;;;;;;11.97;9.50;;;12.70;84.70;;;;;;5013814;28;20818;-75
2021/04/18 10:54:28;;;;;;;15.00;8.90;;;12.80;84.20;;;;;;5010914;28;21013;-76
2021/04/18 10:56:55;;;;;;;11.30;10.07;;;12.60;83.50;;;;;;5024501;28;20534;-76
2021/04/18 10:59:22;;;;;;;10.30;8.77;;;12.50;84.30;;;;;;5032207;28;20502;-75
2021/04/18 11:01:49;;;;;;;9.23;7.73;;;12.40;83.10;;;;;;5031329;28;20803;-76
2021/04/18 11:04:16;;;;;;;14.80;8.13;;;12.30;84.60;;;;;;5022901;28;20528;-76
2021/04/18 11:06:43;;;;;;;19.83;9.33;;;12.30;85.60;;;;;;5011806;28;20971;-76
2021/04/18 11:09:10;;;;;;;16.97;11.40;;;12.40;85.80;;;;;;5018934;28;20519;-75
2021/04/18 11:11:37;;;;;;;10.13;8.50;;;12.30;85.60;;;;;;5010484;28;20831;-75
2021/04/18 11:14:05;;;;;;;13.63;11.57;;;12.30;84.70;;;;;;5027227;28;20425;-75
2021/04/18 11:16:33;;;;;;;13.13;9.63;;;12.40;84.30;;;;;;5011526;28;20560;-75
2021/04/18 11:19:00;;;;;;;11.90;8.90;;;12.20;83.30;;;;;;5011905;28;20427;-75
2021/04/18 11:21:27;;;;;;;17.63;9.10;;;12.20;85.40;;;;;;5010442;28;20461;-75
2021/04/18 11:23:56;;;;;;;9.93;8.87;;;12.10;84.40;;;;;;5012100;28;20516;-76
2021/04/18 11:26:26;;;;;;;12.20;9.23;;;12.10;85.40;;;;;;5011503;28;20537;-75
2021/04/18 11:28:56;;;;;;;13.17;9.13;;;12.00;85.40;;;;;;5011647;28;20413;-75
2021/04/18 11:31:23;;;;;;;11.30;8.03;;;11.90;86.40;;;;;;5011551;28;21107;-75
2021/04/18 11:33:50;;;;;;;10.00;8.23;;;11.90;85.20;;;;;;5011548;28;20448;-75
2021/04/18 11:36:19;;;;;;;12.90;8.17;;;12.00;85.30;;;;;;5024539;28;20552;-75
2021/04/18 11:38:46;;;;;;;10.27;7.77;;;12.00;85.30;;;;;;5031944;28;20452;-75
2021/04/18 11:41:31;;;;;;;9.80;7.67;;;11.80;85.10;;;;;;5009894;28;20457;-75
2021/04/18 11:43:57;;;;;;;9.47;8.43;;;11.80;85.70;;;;;;5012263;28;20421;-75
2021/04/18 11:46:27;;;;;;;10.53;7.70;;;11.80;85.10;;;;;;5011702;28;20499;-75
2021/04/18 11:48:54;;;;;;;9.87;8.10;;;11.80;85.10;;;;;;5014423;28;20455;-75
2021/04/18 11:51:21;;;;;;;12.57;8.77;;;11.80;85.40;;;;;;5032237;28;20510;-75
2021/04/18 11:53:48;;;;;;;12.30;8.23;;;11.90;86.10;;;;;;5035586;28;20424;-75
2021/04/18 11:56:14;;;;;;;8.17;7.37;;;11.90;85.20;;;;;;5015486;28;20469;-75
2021/04/18 11:58:42;;;;;;;12.00;8.53;;;11.90;85.20;;;;;;4998284;28;20793;-75
2021/04/18 12:01:11;;;;;;;9.47;7.80;;;11.90;85.20;;;;;;5015034;28;21033;-75
2021/04/18 12:03:37;;;;;;;9.00;7.73;;;11.90;86.90;;;;;;5015321;28;20448;-76
2021/04/18 12:06:05;;;;;;;9.13;8.10;;;11.90;88.60;;;;;;5014590;28;20862;-75
2021/04/18 12:08:32;;;;;;;15.23;8.23;;;11.90;87.90;;;;;;5018320;28;20435;-76
2021/04/18 12:10:59;;;;;;;12.70;8.13;;;11.90;85.20;;;;;;5028530;28;20476;-75
2021/04/18 12:13:26;;;;;;;8.43;7.50;;;11.90;85.20;;;;;;5015564;28;20424;-75
2021/04/18 12:15:52;;;;;;;10.97;8.20;;;11.90;85.20;;;;;;5014724;28;20437;-75
2021/04/18 12:18:21;;;;;;;9.40;8.30;;;11.90;85.20;;;;;;5017305;28;20451;-76
2021/04/18 12:20:48;;;;;;;9.27;8.30;;;11.90;85.20;;;;;;5014486;28;20429;-76
2021/04/18 12:23:15;;;;;;;12.10;8.93;;;12.00;85.30;;;;;;5015280;28;20482;-76
2021/04/18 12:25:42;;;;;;;8.73;7.83;;;12.10;83.10;;;;;;5014315;28;20468;-76
2021/04/18 12:28:10;;;;;;;10.90;8.70;;;12.10;83.00;;;;;;4998120;28;20455;-75
2021/04/18 12:30:40;;;;;;;11.40;8.07;;;12.10;84.00;;;;;;5013884;28;20464;-75
2021/04/18 12:33:08;;;;;;;12.40;8.97;;;12.10;84.20;;;;;;5014389;28;20544;-75
2021/04/18 12:35:35;;;;;;;10.27;7.80;;;12.20;82.30;;;;;;5014769;28;21275;-75
2021/04/18 12:38:01;;;;;;;11.90;9.07;;;12.30;78.60;;;;;;5014516;28;20982;-75
2021/04/18 12:40:28;;;;;;;9.50;8.10;;;12.30;82.10;;;;;;5014623;28;20448;-75
2021/04/18 12:42:54;;;;;;;11.13;8.17;;;12.30;81.80;;;;;;5012944;28;20862;-75
2021/04/18 12:45:21;;;;;;;10.70;8.50;;;12.30;82.50;;;;;;5013658;28;20539;-76
2021/04/18 12:47:47;;;;;;;10.33;8.57;;;12.30;83.40;;;;;;5014315;28;20541;-76
2021/04/18 12:50:15;;;;;;;18.80;8.80;;;12.30;81.50;;;;;;5022725;28;20467;-76
2021/04/18 12:52:42;;;;;;;13.27;8.97;;;12.40;81.90;;;;;;5034055;28;20459;-76
2021/04/18 12:55:09;;;;;;;11.23;8.57;;;12.30;81.10;;;;;;5033593;28;21004;-75
2021/04/18 12:57:36;;;;;;;12.77;8.43;;;12.30;80.30;;;;;;5031996;28;20460;-76
2021/04/18 13:00:08;;;;;;;10.00;8.30;;;12.30;81.20;;;;;;5033613;28;20843;-76
2021/04/18 13:02:35;;;;;;;10.07;8.10;;;12.40;81.20;;;;;;5027967;28;20511;-75